createdAt,value
2023-04-20T00:00:40.534Z,54.85
2023-04-20T00:01:40.546Z,54.75
2023-04-20T00:02:40.841Z,54.85
2023-04-20T00:03:40.597Z,54.66
2023-04-20T00:04:40.557Z,54.66
2023-04-20T00:05:40.498Z,54.85
2023-04-20T00:06:40.491Z,54.85
2023-04-20T00:07:40.509Z,54.85
2023-04-20T00:08:40.496Z,54.85
2023-04-20T00:09:40.504Z,54.94
2023-04-20T00:10:40.513Z,55.04
2023-04-20T00:11:40.510Z,54.85
2023-04-20T00:12:40.472Z,55.04
2023-04-20T00:13:40.486Z,55.23
2023-04-20T00:14:40.495Z,55.26
2023-04-20T00:15:40.470Z,55.13
2023-04-20T00:16:40.533Z,55.07
2023-04-20T00:17:40.566Z,54.75
2023-04-20T00:18:40.457Z,54.75
2023-04-20T00:19:40.476Z,55.35
2023-04-20T00:20:40.475Z,55.13
2023-04-20T00:21:40.454Z,55.33
2023-04-20T00:22:40.473Z,54.97
2023-04-20T00:23:40.443Z,55.07
2023-04-20T00:24:40.438Z,55.04
2023-04-20T00:25:40.433Z,55.13
2023-04-20T00:26:40.458Z,55.04
2023-04-20T00:27:40.429Z,55.07
2023-04-20T00:28:40.422Z,55.04
2023-04-20T00:29:40.400Z,54.94
2023-04-20T00:30:40.431Z,55.13
2023-04-20T00:31:40.386Z,55.04
2023-04-20T00:32:40.417Z,55.04
2023-04-20T00:33:40.376Z,55.07
2023-04-20T00:34:40.379Z,55.04
2023-04-20T00:35:40.383Z,55.04
2023-04-20T00:36:40.398Z,55.13
2023-04-20T00:37:40.372Z,55.23
2023-04-20T00:38:40.361Z,55.23
2023-04-20T00:39:40.398Z,54.78
2023-04-20T00:40:40.362Z,55.13
2023-04-20T00:41:40.359Z,54.75
2023-04-20T00:42:40.396Z,55.04
2023-04-20T00:43:40.330Z,54.78
2023-04-20T00:44:40.332Z,55.13
2023-04-20T00:45:40.337Z,54.66
2023-04-20T00:46:40.450Z,55.04
2023-04-20T00:47:40.355Z,55.13
2023-04-20T00:48:40.329Z,55.13
2023-04-20T00:49:40.321Z,54.94
2023-04-20T00:50:40.345Z,55.23
2023-04-20T00:51:40.319Z,54.94
2023-04-20T00:52:40.340Z,55.23
2023-04-20T00:53:40.290Z,55.23
2023-04-20T00:54:40.316Z,54.94
2023-04-20T00:55:40.285Z,54.75
2023-04-20T00:56:40.289Z,55.04
2023-04-20T00:57:40.305Z,54.94
2023-04-20T00:58:40.302Z,54.85
2023-04-20T00:59:40.269Z,54.85
2023-04-20T01:00:40.287Z,54.94
2023-04-20T01:01:40.311Z,54.94
2023-04-20T01:02:40.440Z,54.75
2023-04-20T01:03:40.569Z,54.85
2023-04-20T01:04:40.359Z,54.85
2023-04-20T01:05:40.253Z,55.13
2023-04-20T01:06:40.258Z,54.94
2023-04-20T01:07:40.270Z,55.04
2023-04-20T01:08:40.247Z,55.23
2023-04-20T01:09:40.244Z,54.94
2023-04-20T01:10:40.236Z,54.85
2023-04-20T01:11:40.246Z,54.85
2023-04-20T01:12:40.215Z,54.85
2023-04-20T01:13:40.225Z,55.33
2023-04-20T01:14:40.255Z,54.85
2023-04-20T01:15:40.224Z,54.94
2023-04-20T01:16:40.197Z,54.94
2023-04-20T01:17:40.349Z,54.94
2023-04-20T01:18:40.188Z,54.94
2023-04-20T01:19:40.190Z,55.23
2023-04-20T01:20:40.187Z,55.04
2023-04-20T01:21:40.176Z,55.04
2023-04-20T01:22:40.176Z,55.13
2023-04-20T01:23:40.186Z,54.85
2023-04-20T01:24:40.169Z,55.23
2023-04-20T01:25:40.153Z,54.75
2023-04-20T01:26:40.151Z,55.23
2023-04-20T01:27:40.154Z,55.04
2023-04-20T01:28:40.148Z,54.85
2023-04-20T01:29:40.141Z,55.04
2023-04-20T01:30:40.172Z,55.23
2023-04-20T01:31:40.176Z,55.13
2023-04-20T01:33:40.123Z,55.52
2023-04-20T01:34:40.140Z,55.42
2023-04-20T01:35:40.120Z,55.52
2023-04-20T01:36:40.123Z,55.52
2023-04-20T01:37:40.122Z,55.52
2023-04-20T01:38:40.137Z,55.71
2023-04-20T01:39:40.189Z,55.33
2023-04-20T01:40:40.119Z,55.42
2023-04-20T01:41:40.101Z,55.71
2023-04-20T01:42:40.086Z,55.62
2023-04-20T01:43:40.104Z,55.62
2023-04-20T01:44:40.100Z,55.42
2023-04-20T01:45:40.082Z,55.42
2023-04-20T01:46:40.180Z,55.52
2023-04-20T01:47:40.110Z,55.33
2023-04-20T01:48:40.083Z,55.52
2023-04-20T01:49:40.064Z,55.23
2023-04-20T01:50:40.077Z,55.42
2023-04-20T01:51:40.092Z,55.42
2023-04-20T01:52:40.051Z,55.52
2023-04-20T01:53:40.048Z,55.33
2023-04-20T01:54:40.032Z,55.42
2023-04-20T01:55:40.027Z,55.42
2023-04-20T01:56:40.060Z,55.52
2023-04-20T01:57:40.028Z,55.42
2023-04-20T01:58:40.041Z,55.42
2023-04-20T01:59:40.042Z,55.33
2023-04-20T02:00:40.102Z,55.52
2023-04-20T02:01:40.019Z,55.42
2023-04-20T02:02:40.164Z,55.23
2023-04-20T02:03:40.120Z,55.52
2023-04-20T02:04:39.994Z,55.33
2023-04-20T02:05:39.981Z,55.52
2023-04-20T02:06:39.996Z,55.33
2023-04-20T02:07:39.999Z,55.52
2023-04-20T02:08:39.989Z,55.23
2023-04-20T02:09:39.975Z,55.42
2023-04-20T02:10:39.976Z,55.62
2023-04-20T02:11:39.977Z,55.62
2023-04-20T02:12:39.957Z,55.62
2023-04-20T02:13:39.980Z,55.42
2023-04-20T02:14:39.957Z,55.42
2023-04-20T02:15:39.961Z,55.42
2023-04-20T02:16:39.984Z,55.33
2023-04-20T02:17:39.948Z,55.52
2023-04-20T02:18:40.000Z,55.33
2023-04-20T02:19:39.918Z,55.33
2023-04-20T02:20:39.971Z,55.42
2023-04-20T02:21:39.917Z,55.62
2023-04-20T02:22:39.922Z,55.62
2023-04-20T02:23:39.917Z,55.52
2023-04-20T02:24:39.914Z,55.33
2023-04-20T02:25:39.890Z,55.52
2023-04-20T02:26:39.890Z,55.42
2023-04-20T02:27:39.883Z,55.33
2023-04-20T02:28:39.882Z,55.52
2023-04-20T02:29:39.878Z,55.62
2023-04-20T02:30:39.882Z,55.23
2023-04-20T02:31:39.961Z,55.42
2023-04-20T02:32:39.921Z,55.62
2023-04-20T02:33:39.891Z,55.42
2023-04-20T02:34:40.065Z,55.52
2023-04-20T02:35:39.854Z,55.52
2023-04-20T02:36:39.848Z,55.62
2023-04-20T02:37:39.854Z,55.42
2023-04-20T02:38:39.844Z,55.62
2023-04-20T02:39:39.839Z,55.62
2023-04-20T02:40:39.825Z,55.52
2023-04-20T02:41:39.836Z,55.62
2023-04-20T02:42:39.834Z,55.33
2023-04-20T02:43:39.813Z,55.62
2023-04-20T02:44:39.832Z,55.42
2023-04-20T02:45:39.852Z,55.42
2023-04-20T02:46:39.883Z,55.42
2023-04-20T02:47:39.855Z,55.33
2023-04-20T02:48:39.809Z,55.42
2023-04-20T02:49:39.785Z,55.42
2023-04-20T02:50:39.808Z,55.42
2023-04-20T02:51:39.801Z,55.42
2023-04-20T02:52:39.770Z,55.52
2023-04-20T02:53:39.771Z,55.42
2023-04-20T02:54:39.779Z,55.42
2023-04-20T02:55:39.809Z,55.42
2023-04-20T02:56:39.771Z,55.42
2023-04-20T02:57:39.760Z,55.42
2023-04-20T02:58:39.753Z,55.42
2023-04-20T02:59:39.762Z,55.42
2023-04-20T03:00:39.754Z,55.42
2023-04-20T03:01:39.760Z,55.42
2023-04-20T03:02:39.951Z,55.52
2023-04-20T03:03:39.890Z,55.52
2023-04-20T03:04:39.780Z,55.23
2023-04-20T03:05:39.724Z,55.52
2023-04-20T03:06:39.814Z,55.42
2023-04-20T03:07:39.727Z,55.23
2023-04-20T03:08:39.730Z,55.52
2023-04-20T03:09:39.717Z,55.23
2023-04-20T03:10:39.724Z,55.33
2023-04-20T03:11:39.716Z,55.42
2023-04-20T03:12:39.708Z,55.42
2023-04-20T03:13:39.682Z,55.42
2023-04-20T03:14:39.692Z,55.42
2023-04-20T03:15:39.697Z,55.23
2023-04-20T03:16:39.773Z,55.23
2023-04-20T03:17:39.796Z,55.33
2023-04-20T03:18:39.720Z,55.23
2023-04-20T03:19:39.701Z,55.23
2023-04-20T03:20:39.672Z,55.52
2023-04-20T03:21:39.669Z,55.33
2023-04-20T03:22:39.677Z,55.52
2023-04-20T03:23:39.647Z,55.42
2023-04-20T03:24:39.651Z,55.42
2023-04-20T03:25:39.648Z,55.52
2023-04-20T03:26:39.632Z,55.52
2023-04-20T03:27:39.630Z,55.42
2023-04-20T03:28:39.628Z,55.42
2023-04-20T03:29:39.629Z,55.42
2023-04-20T03:30:39.615Z,55.62
2023-04-20T03:31:39.635Z,55.52
2023-04-20T03:32:39.638Z,55.52
2023-04-20T03:33:39.592Z,55.42
2023-04-20T03:34:39.597Z,55.42
2023-04-20T03:35:39.613Z,55.62
2023-04-20T03:36:39.617Z,55.52
2023-04-20T03:37:39.601Z,55.52
2023-04-20T03:38:39.621Z,55.52
2023-04-20T03:39:39.578Z,55.42
2023-04-20T03:40:39.588Z,55.80
2023-04-20T03:41:39.557Z,56.00
2023-04-20T03:42:39.581Z,56.00
2023-04-20T03:43:39.548Z,55.80
2023-04-20T03:44:39.556Z,55.62
2023-04-20T03:45:39.584Z,55.62
2023-04-20T03:46:39.555Z,55.71
2023-04-20T03:47:39.622Z,55.58
2023-04-20T03:48:39.563Z,56.09
2023-04-20T03:49:39.531Z,55.62
2023-04-20T03:50:39.540Z,55.62
2023-04-20T03:51:39.507Z,55.62
2023-04-20T03:52:39.506Z,55.62
2023-04-20T03:53:39.714Z,55.62
2023-04-20T03:54:39.676Z,55.58
2023-04-20T03:55:39.510Z,55.62
2023-04-20T03:56:39.500Z,55.62
2023-04-20T03:57:39.507Z,55.62
2023-04-20T03:58:39.478Z,55.71
2023-04-20T03:59:39.475Z,55.80
2023-04-20T04:00:39.472Z,55.80
2023-04-20T04:01:39.490Z,55.71
2023-04-20T04:02:39.576Z,55.80
2023-04-20T04:03:39.573Z,55.90
2023-04-20T04:04:39.573Z,55.80
2023-04-20T04:05:39.471Z,55.62
2023-04-20T04:06:39.441Z,55.80
2023-04-20T04:07:39.472Z,55.80
2023-04-20T04:08:39.446Z,55.80
2023-04-20T04:09:39.447Z,55.80
2023-04-20T04:10:39.464Z,55.62
2023-04-20T04:11:39.432Z,55.52
2023-04-20T04:12:39.419Z,55.62
2023-04-20T04:13:39.437Z,55.52
2023-04-20T04:14:39.433Z,55.62
2023-04-20T04:15:39.420Z,55.52
2023-04-20T04:16:39.433Z,55.90
2023-04-20T04:17:39.424Z,55.52
2023-04-20T04:18:39.385Z,55.42
2023-04-20T04:19:39.418Z,55.62
2023-04-20T04:20:39.436Z,55.33
2023-04-20T04:21:39.399Z,55.52
2023-04-20T04:22:39.389Z,55.52
2023-04-20T04:23:39.377Z,55.52
2023-04-20T04:24:39.370Z,55.52
2023-04-20T04:25:39.382Z,55.52
2023-04-20T04:26:39.385Z,55.71
2023-04-20T04:27:39.385Z,55.71
2023-04-20T04:28:39.362Z,55.52
2023-04-20T04:29:39.352Z,56.00
2023-04-20T04:30:39.351Z,55.90
2023-04-20T04:31:39.425Z,55.49
2023-04-20T04:32:39.437Z,55.71
2023-04-20T04:33:39.323Z,55.71
2023-04-20T04:34:39.352Z,55.49
2023-04-20T04:35:39.325Z,55.87
2023-04-20T04:36:39.324Z,55.68
2023-04-20T04:37:39.323Z,55.80
2023-04-20T04:38:39.320Z,55.71
2023-04-20T04:39:39.313Z,55.52
2023-04-20T04:40:39.306Z,55.62
2023-04-20T04:41:39.302Z,55.52
2023-04-20T04:42:39.297Z,55.62
2023-04-20T04:43:39.306Z,55.80
2023-04-20T04:44:39.286Z,55.71
2023-04-20T04:45:39.274Z,56.00
2023-04-20T04:46:39.344Z,55.52
2023-04-20T04:47:39.299Z,55.42
2023-04-20T04:48:39.276Z,55.52
2023-04-20T04:49:39.259Z,55.42
2023-04-20T04:50:39.268Z,55.42
2023-04-20T04:51:39.254Z,55.42
2023-04-20T04:52:39.258Z,55.33
2023-04-20T04:53:39.244Z,55.42
2023-04-20T04:54:39.270Z,55.33
2023-04-20T04:55:39.232Z,55.33
2023-04-20T04:56:39.226Z,55.52
2023-04-20T04:57:39.227Z,55.42
2023-04-20T04:58:39.233Z,55.04
2023-04-20T04:59:39.243Z,55.23
2023-04-20T05:00:39.207Z,54.85
2023-04-20T05:01:39.259Z,54.75
2023-04-20T05:02:39.709Z,55.13
2023-04-20T05:03:39.308Z,55.23
2023-04-20T05:04:39.370Z,55.13
2023-04-20T05:05:39.195Z,55.23
2023-04-20T05:06:39.197Z,55.04
2023-04-20T05:07:39.202Z,54.88
2023-04-20T05:08:39.179Z,54.78
2023-04-20T05:09:39.173Z,54.49
2023-04-20T05:10:39.168Z,54.78
2023-04-20T05:11:39.171Z,54.78
2023-04-20T05:12:39.188Z,54.49
2023-04-20T05:13:39.194Z,54.68
2023-04-20T05:14:39.204Z,54.78
2023-04-20T05:15:39.163Z,54.39
2023-04-20T05:16:39.231Z,54.68
2023-04-20T05:17:39.225Z,54.68
2023-04-20T05:18:39.137Z,54.39
2023-04-20T05:19:39.148Z,54.49
2023-04-20T05:20:39.129Z,54.39
2023-04-20T05:21:39.146Z,54.21
2023-04-20T05:22:39.138Z,54.39
2023-04-20T05:23:39.123Z,54.58
2023-04-20T05:24:39.124Z,54.39
2023-04-20T05:25:39.148Z,54.58
2023-04-20T05:26:39.126Z,54.49
2023-04-20T05:27:39.143Z,54.88
2023-04-20T05:28:39.100Z,54.23
2023-04-20T05:29:39.146Z,54.23
2023-04-20T05:30:39.131Z,54.01
2023-04-20T05:31:39.193Z,54.33
2023-04-20T05:32:39.127Z,54.23
2023-04-20T05:33:39.095Z,54.13
2023-04-20T05:34:39.076Z,54.13
2023-04-20T05:35:39.098Z,54.04
2023-04-20T05:36:39.088Z,54.04
2023-04-20T05:37:39.093Z,54.04
2023-04-20T05:38:39.093Z,54.33
2023-04-20T05:39:39.058Z,54.90
2023-04-20T05:40:39.077Z,54.61
2023-04-20T05:41:39.060Z,54.04
2023-04-20T05:42:39.059Z,54.04
2023-04-20T05:43:39.064Z,54.33
2023-04-20T05:44:39.056Z,54.23
2023-04-20T05:45:39.084Z,54.42
2023-04-20T05:46:39.175Z,54.80
2023-04-20T05:47:39.108Z,54.80
2023-04-20T05:48:39.055Z,54.61
2023-04-20T05:49:39.074Z,54.61
2023-04-20T05:50:39.035Z,54.42
2023-04-20T05:51:39.044Z,54.33
2023-04-20T05:52:39.030Z,54.42
2023-04-20T05:53:39.030Z,54.42
2023-04-20T05:54:39.005Z,54.52
2023-04-20T05:55:39.024Z,54.52
2023-04-20T05:56:39.018Z,54.42
2023-04-20T05:57:39.018Z,54.61
2023-04-20T05:58:39.033Z,54.61
2023-04-20T05:59:39.009Z,54.80
2023-04-20T06:00:39.003Z,54.52
2023-04-20T06:01:39.007Z,54.80
2023-04-20T06:02:39.126Z,54.80
2023-04-20T06:03:39.223Z,54.90
2023-04-20T06:04:39.324Z,55.00
2023-04-20T06:05:39.084Z,55.10
2023-04-20T06:06:39.016Z,55.10
2023-04-20T06:07:38.979Z,55.29
2023-04-20T06:08:38.986Z,55.10
2023-04-20T06:09:38.987Z,54.90
2023-04-20T06:10:38.977Z,55.10
2023-04-20T06:11:38.968Z,55.10
2023-04-20T06:12:38.965Z,55.57
2023-04-20T06:13:39.032Z,55.38
2023-04-20T06:14:38.984Z,55.38
2023-04-20T06:15:39.058Z,55.57
2023-04-20T06:16:38.964Z,55.47
2023-04-20T06:17:38.998Z,55.47
2023-04-20T06:18:38.986Z,55.38
2023-04-20T06:19:38.981Z,55.38
2023-04-20T06:20:38.940Z,55.47
2023-04-20T06:21:38.944Z,55.57
2023-04-20T06:22:38.919Z,55.74
2023-04-20T06:23:38.974Z,56.02
2023-04-20T06:24:38.916Z,55.83
2023-04-20T06:25:38.914Z,55.67
2023-04-20T06:26:38.925Z,55.83
2023-04-20T06:27:38.959Z,55.64
2023-04-20T06:28:38.935Z,55.64
2023-04-20T06:29:38.901Z,56.02
2023-04-20T06:30:38.900Z,55.93
2023-04-20T06:31:38.938Z,55.77
2023-04-20T06:32:38.978Z,55.86
2023-04-20T06:33:38.886Z,55.74
2023-04-20T06:34:38.932Z,55.64
2023-04-20T06:35:38.886Z,55.83
2023-04-20T06:36:38.868Z,55.64
2023-04-20T06:37:38.913Z,55.83
2023-04-20T06:38:38.885Z,55.45
2023-04-20T06:39:38.875Z,55.74
2023-04-20T06:40:38.873Z,56.41
2023-04-20T06:41:38.848Z,56.12
2023-04-20T06:42:38.853Z,56.31
2023-04-20T06:43:38.858Z,56.41
2023-04-20T06:44:38.840Z,56.31
2023-04-20T06:45:38.840Z,55.93
2023-04-20T06:46:38.870Z,56.22
2023-04-20T06:47:38.893Z,56.02
2023-04-20T06:48:38.829Z,56.02
2023-04-20T06:49:38.838Z,55.93
2023-04-20T06:50:38.868Z,56.12
2023-04-20T06:51:38.809Z,56.12
2023-04-20T06:52:38.828Z,56.02
2023-04-20T06:53:38.814Z,56.12
2023-04-20T06:54:38.856Z,56.12
2023-04-20T06:55:38.805Z,56.41
2023-04-20T06:56:38.786Z,56.41
2023-04-20T06:57:38.903Z,56.22
2023-04-20T06:58:38.816Z,56.51
2023-04-20T06:59:38.817Z,56.31
2023-04-20T07:00:38.767Z,56.12
2023-04-20T07:01:38.885Z,56.12
2023-04-20T07:02:38.866Z,56.31
2023-04-20T07:03:38.963Z,56.41
2023-04-20T07:04:38.810Z,56.31
2023-04-20T07:05:38.775Z,56.22
2023-04-20T07:06:38.969Z,56.02
2023-04-20T07:07:38.763Z,56.02
2023-04-20T07:08:38.760Z,56.02
2023-04-20T07:09:38.753Z,56.31
2023-04-20T07:10:38.749Z,56.22
2023-04-20T07:11:38.756Z,56.31
2023-04-20T07:12:39.922Z,56.51
2023-04-20T07:13:38.745Z,56.41
2023-04-20T07:14:38.736Z,56.60
2023-04-20T07:15:38.755Z,56.51
2023-04-20T07:16:38.823Z,56.60
2023-04-20T07:17:38.916Z,56.79
2023-04-20T07:18:38.891Z,56.79
2023-04-20T07:19:38.708Z,56.70
2023-04-20T07:20:38.727Z,56.89
2023-04-20T07:21:38.713Z,56.89
2023-04-20T07:34:41.573Z,56.70
2023-04-20T07:35:41.550Z,56.79
2023-04-20T07:36:41.579Z,56.41
2023-04-20T07:37:41.426Z,56.41
2023-04-20T07:44:23.948Z,56.89
2023-04-20T07:45:23.863Z,56.89
2023-04-20T07:46:23.980Z,56.86
2023-04-20T07:47:23.925Z,56.89
2023-04-20T07:48:24.000Z,56.86
2023-04-20T07:49:23.874Z,57.06
2023-04-20T07:50:23.887Z,56.98
2023-04-20T07:51:23.857Z,56.89
2023-04-20T07:52:23.845Z,56.96
2023-04-20T07:53:23.834Z,56.98
2023-04-20T07:54:23.854Z,57.06
2023-04-20T07:55:23.851Z,57.15
2023-04-20T07:56:23.828Z,57.06
2023-04-20T07:57:23.834Z,57.18
2023-04-20T07:58:23.831Z,57.18
2023-04-20T07:59:23.846Z,57.37
2023-04-20T08:00:23.821Z,57.46
2023-04-20T08:01:23.830Z,57.34
2023-04-20T08:02:23.971Z,56.98
2023-04-20T08:03:24.067Z,57.56
2023-04-20T08:04:24.063Z,56.96
2023-04-20T08:05:23.900Z,56.96
2023-04-20T08:06:24.032Z,57.43
2023-04-20T08:07:24.098Z,57.24
2023-04-20T08:08:23.792Z,57.43
2023-04-20T08:09:23.775Z,57.43
2023-04-20T08:10:23.791Z,57.24
2023-04-20T08:11:23.775Z,57.34
2023-04-20T08:12:23.774Z,57.46
2023-04-20T08:13:23.772Z,57.24
2023-04-20T08:14:23.775Z,57.24
2023-04-20T08:15:23.774Z,57.24
2023-04-20T08:16:24.109Z,57.24
2023-04-20T08:17:23.814Z,57.24
2023-04-20T08:18:23.759Z,57.34
2023-04-20T08:19:23.736Z,57.34
2023-04-20T08:20:23.975Z,57.43
2023-04-20T08:21:25.466Z,57.34
2023-04-20T08:22:23.769Z,57.34
2023-04-20T08:23:23.732Z,57.24
2023-04-20T08:24:23.713Z,57.63
2023-04-20T08:25:26.096Z,57.72
2023-04-20T08:26:23.713Z,57.53
2023-04-20T08:27:23.721Z,57.63
2023-04-20T08:28:33.547Z,57.82
2023-04-20T08:29:23.718Z,57.98
2023-04-20T08:30:23.701Z,57.98
2023-04-20T08:31:23.778Z,58.37
2023-04-20T08:32:23.696Z,58.37
2023-04-20T08:33:23.672Z,58.37
2023-04-20T08:34:23.687Z,58.37
2023-04-20T08:35:23.673Z,58.37
2023-04-20T08:36:23.673Z,58.46
2023-04-20T08:37:23.668Z,57.79
2023-04-20T08:38:32.927Z,57.89
2023-04-20T08:39:23.655Z,57.98
2023-04-20T08:40:23.710Z,58.01
2023-04-20T08:41:23.694Z,58.11
2023-04-20T08:42:23.625Z,58.08
2023-04-20T08:43:23.672Z,57.98
2023-04-20T08:44:23.646Z,57.79
2023-04-20T08:45:23.644Z,58.17
2023-04-20T08:46:23.654Z,57.98
2023-04-20T08:47:23.650Z,57.89
2023-04-20T08:48:23.606Z,57.89
2023-04-20T08:49:23.605Z,58.08
2023-04-20T08:50:23.625Z,58.27
2023-04-20T08:51:23.600Z,58.17
2023-04-20T08:52:23.600Z,58.08
2023-04-20T08:53:23.601Z,58.01
2023-04-20T08:54:24.834Z,57.41
2023-04-20T08:55:23.567Z,57.43
2023-04-20T08:56:23.572Z,57.41
2023-04-20T08:57:23.586Z,57.41
2023-04-20T08:58:23.558Z,57.60
2023-04-20T08:59:23.553Z,57.50
2023-04-20T09:00:23.550Z,57.41
2023-04-20T09:01:34.337Z,57.34
2023-04-20T09:02:23.705Z,57.31
2023-04-20T09:03:23.684Z,57.15
2023-04-20T09:04:23.967Z,57.31
2023-04-20T09:05:23.638Z,57.15
2023-04-20T09:06:23.536Z,57.31
2023-04-20T09:07:23.527Z,57.41
2023-04-20T09:08:23.517Z,57.24
2023-04-20T09:09:23.514Z,57.34
2023-04-20T09:10:23.598Z,57.43
2023-04-20T09:11:23.497Z,57.60
2023-04-20T09:12:23.496Z,57.53
2023-04-20T09:13:23.508Z,57.53
2023-04-20T09:14:23.496Z,57.53
2023-04-20T09:15:23.495Z,57.53
2023-04-20T09:16:23.532Z,57.53
2023-04-20T09:17:23.518Z,57.43
2023-04-20T09:18:23.470Z,57.24
2023-04-20T09:19:23.484Z,57.53
2023-04-20T09:20:23.460Z,57.43
2023-04-20T09:21:23.465Z,57.43
2023-04-20T09:22:23.462Z,57.43
2023-04-20T09:23:23.448Z,57.41
2023-04-20T09:24:23.453Z,57.15
2023-04-20T09:25:23.447Z,57.24
2023-04-20T09:26:23.518Z,57.24
2023-04-20T09:27:23.518Z,57.24
2023-04-20T09:28:23.426Z,57.24
2023-04-20T09:29:23.465Z,57.34
2023-04-20T09:30:23.432Z,57.34
2023-04-20T09:31:23.433Z,57.43
2023-04-20T09:32:23.544Z,57.53
2023-04-20T09:33:23.422Z,57.53
2023-04-20T09:34:23.412Z,57.63
2023-04-20T09:35:23.408Z,57.63
2023-04-20T09:36:23.420Z,57.24
2023-04-20T09:37:23.391Z,57.72
2023-04-20T09:38:23.383Z,57.63
2023-04-20T09:39:23.392Z,58.11
2023-04-20T09:40:23.405Z,57.43
2023-04-20T09:41:23.378Z,57.43
2023-04-20T09:42:23.401Z,58.11
2023-04-20T09:43:23.373Z,58.01
2023-04-20T09:44:23.364Z,58.11
2023-04-20T09:45:23.365Z,58.20
2023-04-20T09:46:23.467Z,58.11
2023-04-20T09:47:23.385Z,57.72
2023-04-20T09:48:23.365Z,57.72
2023-04-20T09:49:23.350Z,58.11
2023-04-20T09:50:31.788Z,57.82
2023-04-20T09:51:23.344Z,57.92
2023-04-20T09:52:23.343Z,57.92
2023-04-20T09:53:23.330Z,58.01
2023-04-20T09:54:23.329Z,57.92
2023-04-20T09:55:23.338Z,58.01
2023-04-20T09:56:23.421Z,57.72
2023-04-20T09:57:23.332Z,58.01
2023-04-20T09:58:23.351Z,57.92
2023-04-20T09:59:23.291Z,57.92
2023-04-20T10:00:23.309Z,57.92
2023-04-20T10:01:23.376Z,57.72
2023-04-20T10:02:23.408Z,57.82
2023-04-20T10:03:23.393Z,58.11
2023-04-20T10:04:23.818Z,58.11
2023-04-20T10:05:23.285Z,58.11
2023-04-20T10:06:23.270Z,58.01
2023-04-20T10:07:23.273Z,58.01
2023-04-20T10:08:23.276Z,58.11
2023-04-20T10:09:23.265Z,57.92
2023-04-20T10:10:23.267Z,58.01
2023-04-20T10:11:23.273Z,58.01
2023-04-20T10:12:23.267Z,58.01
2023-04-20T10:13:23.256Z,58.01
2023-04-20T10:14:23.288Z,58.01
2023-04-20T10:15:23.228Z,58.01
2023-04-20T10:16:23.267Z,57.92
2023-04-20T10:17:23.355Z,58.01
2023-04-20T10:19:23.224Z,58.01
2023-04-20T10:20:23.229Z,58.11
2023-04-20T10:21:23.244Z,57.92
2023-04-20T10:22:23.222Z,58.11
2023-04-20T10:23:23.208Z,58.11
2023-04-20T10:24:23.414Z,57.92
2023-04-20T10:25:23.200Z,57.92
2023-04-20T10:26:23.185Z,57.92
2023-04-20T10:27:23.188Z,57.92
2023-04-20T10:28:23.199Z,57.92
2023-04-20T10:29:23.177Z,58.01
2023-04-20T10:30:23.241Z,57.82
2023-04-20T10:31:23.196Z,58.11
2023-04-20T10:32:23.206Z,57.82
2023-04-20T10:33:23.226Z,57.92
2023-04-20T10:34:23.166Z,58.01
2023-04-20T10:35:23.151Z,58.01
2023-04-20T10:36:23.165Z,58.39
2023-04-20T10:37:23.154Z,58.49
2023-04-20T10:38:23.145Z,58.39
2023-04-20T10:39:23.290Z,58.01
2023-04-20T10:40:23.164Z,58.59
2023-04-20T10:41:23.140Z,58.59
2023-04-20T10:42:23.138Z,58.30
2023-04-20T10:43:23.142Z,58.59
2023-04-20T10:44:23.139Z,58.39
2023-04-20T10:45:23.137Z,58.39
2023-04-20T10:46:23.323Z,58.30
2023-04-20T10:47:23.174Z,58.30
2023-04-20T10:48:23.119Z,58.39
2023-04-20T10:49:23.116Z,58.49
2023-04-20T10:50:23.112Z,58.30
2023-04-20T10:51:23.129Z,58.39
2023-04-20T10:52:23.084Z,58.20
2023-04-20T10:53:23.161Z,58.49
2023-04-20T10:54:23.087Z,58.11
2023-04-20T10:55:23.068Z,58.11
2023-04-20T10:56:23.102Z,58.01
2023-04-20T10:57:23.086Z,58.30
2023-04-20T10:58:23.085Z,58.11
2023-04-20T10:59:23.092Z,58.11
2023-04-20T11:00:23.092Z,58.11
2023-04-20T11:01:23.154Z,58.20
2023-04-20T11:02:23.371Z,58.30
2023-04-20T11:03:23.159Z,58.11
2023-04-20T11:04:23.072Z,58.11
2023-04-20T11:05:23.117Z,58.20
2023-04-20T11:06:23.035Z,58.20
2023-04-20T11:07:23.042Z,58.20
2023-04-20T11:08:23.043Z,58.11
2023-04-20T11:09:23.007Z,58.20
2023-04-20T11:10:23.061Z,58.11
2023-04-20T11:11:23.046Z,58.20
2023-04-20T11:12:23.051Z,58.20
2023-04-20T11:13:23.046Z,58.01
2023-04-20T11:14:23.008Z,58.20
2023-04-20T11:15:23.007Z,58.11
2023-04-20T11:16:28.078Z,58.11
2023-04-20T11:17:23.092Z,58.30
2023-04-20T11:18:23.138Z,58.11
2023-04-20T11:19:22.970Z,58.20
2023-04-20T11:20:22.967Z,58.30
2023-04-20T11:21:22.970Z,58.30
2023-04-20T11:22:23.020Z,58.39
2023-04-20T11:23:22.980Z,58.20
2023-04-20T11:24:22.971Z,58.39
2023-04-20T11:25:22.993Z,58.39
2023-04-20T11:26:22.982Z,58.30
2023-04-20T11:27:22.943Z,58.11
2023-04-20T11:28:22.951Z,58.20
2023-04-20T11:29:22.949Z,58.20
2023-04-20T11:30:22.951Z,58.20
2023-04-20T11:31:23.008Z,58.59
2023-04-20T11:32:23.225Z,58.20
2023-04-20T11:33:23.080Z,58.11
2023-04-20T11:34:22.933Z,58.49
2023-04-20T11:35:22.935Z,58.59
2023-04-20T11:36:22.932Z,58.59
2023-04-20T11:37:22.904Z,58.49
2023-04-20T11:38:22.901Z,58.49
2023-04-20T11:39:22.897Z,58.49
2023-04-20T11:40:23.003Z,58.49
2023-04-20T11:41:22.885Z,58.49
2023-04-20T11:42:22.932Z,58.39
2023-04-20T11:43:22.897Z,58.39
2023-04-20T11:44:22.886Z,58.39
2023-04-20T11:45:22.902Z,58.30
2023-04-20T11:46:22.925Z,58.30
2023-04-20T11:47:22.976Z,58.49
2023-04-20T11:48:22.869Z,58.30
2023-04-20T11:49:22.907Z,58.87
2023-04-20T11:50:22.891Z,58.59
2023-04-20T11:51:22.875Z,58.59
2023-04-20T11:52:22.874Z,58.59
2023-04-20T11:53:22.887Z,58.59
2023-04-20T11:54:22.879Z,58.49
2023-04-20T11:55:22.870Z,58.69
2023-04-20T11:56:23.120Z,58.49
2023-04-20T11:57:22.861Z,58.59
2023-04-20T11:58:22.836Z,58.69
2023-04-20T11:59:22.846Z,58.59
2023-04-20T12:00:22.861Z,58.59
2023-04-20T12:01:22.874Z,58.59
2023-04-20T12:02:22.979Z,58.30
2023-04-20T12:03:23.055Z,58.39
2023-04-20T12:04:23.352Z,58.39
2023-04-20T12:05:22.899Z,58.49
2023-04-20T12:06:22.860Z,58.59
2023-04-20T12:07:22.798Z,58.59
2023-04-20T12:08:22.795Z,58.59
2023-04-20T12:09:22.815Z,58.59
2023-04-20T12:10:22.797Z,58.39
2023-04-20T12:11:22.837Z,58.39
2023-04-20T12:12:22.782Z,58.59
2023-04-20T12:13:22.784Z,58.59
2023-04-20T12:14:22.761Z,58.59
2023-04-20T12:15:22.801Z,58.59
2023-04-20T12:16:22.857Z,58.39
2023-04-20T12:17:22.900Z,58.49
2023-04-20T12:18:22.741Z,58.39
2023-04-20T12:19:22.745Z,58.59
2023-04-20T12:20:22.733Z,58.69
2023-04-20T12:21:22.752Z,58.97
2023-04-20T12:22:22.857Z,58.59
2023-04-20T12:23:22.744Z,58.59
2023-04-20T12:24:22.727Z,58.78
2023-04-20T12:25:22.747Z,58.49
2023-04-20T12:26:31.760Z,58.59
2023-04-20T12:27:22.705Z,58.59
2023-04-20T12:28:22.756Z,58.69
2023-04-20T12:29:22.738Z,58.87
2023-04-20T12:30:22.714Z,58.49
2023-04-20T12:31:24.438Z,58.59
2023-04-20T12:32:22.778Z,58.49
2023-04-20T12:33:22.727Z,58.69
2023-04-20T12:34:22.720Z,58.49
2023-04-20T12:35:22.724Z,58.69
2023-04-20T12:36:22.733Z,58.59
2023-04-20T12:37:22.716Z,58.69
2023-04-20T12:38:22.711Z,58.69
2023-04-20T12:39:22.695Z,58.59
2023-04-20T12:40:22.670Z,58.69
2023-04-20T12:41:22.734Z,58.59
2023-04-20T12:42:22.691Z,58.49
2023-04-20T12:43:22.715Z,58.49
2023-04-20T12:44:22.686Z,58.49
2023-04-20T12:45:22.656Z,58.49
2023-04-20T12:46:22.791Z,58.59
2023-04-20T12:47:22.692Z,58.87
2023-04-20T12:48:22.786Z,58.59
2023-04-20T12:49:22.640Z,58.69
2023-04-20T12:50:22.645Z,58.69
2023-04-20T12:51:22.655Z,58.78
2023-04-20T12:52:22.632Z,58.49
2023-04-20T12:53:22.614Z,58.59
2023-04-20T12:54:22.713Z,58.59
2023-04-20T12:55:22.621Z,58.59
2023-04-20T12:56:22.593Z,58.39
2023-04-20T12:57:22.622Z,58.39
2023-04-20T12:58:22.605Z,58.20
2023-04-20T12:59:22.585Z,58.30
2023-04-20T13:00:22.573Z,58.87
2023-04-20T13:01:22.888Z,58.49
2023-04-20T13:02:22.827Z,58.30
2023-04-20T13:03:22.884Z,58.30
2023-04-20T13:04:23.220Z,58.30
2023-04-20T13:05:22.564Z,58.87
2023-04-20T13:06:22.592Z,58.49
2023-04-20T13:07:22.644Z,58.87
2023-04-20T13:08:22.555Z,58.87
2023-04-20T13:09:22.557Z,58.59
2023-04-20T13:10:22.630Z,58.78
2023-04-20T13:11:22.538Z,58.78
2023-04-20T13:12:22.545Z,58.87